Terminal Aerodrome Forecast
Issued by NWS

Home | Current Version | Previous Version | Text Only | Print | Product List | Glossary On
Versions: 1 2 3 4 5 6 7 8 9 10 11 12 13 14 15 16 17 18 19 20 21 22 23 24 25 26 27 28 29 30 31 32 33 34 35 36 37 38
000
FTUS46 KSEW 181727
TAFPAE
TAF
KPAE 181727Z 1818/1918 34003KT P6SM VCSH BKN003 BKN008 OVC070
     FM182000 32005KT P6SM VCSH SCT030 BKN050
     FM190200 00000KT P6SM SCT050 BKN120
     FM191200 24003KT 5SM BR OVC020
     FM191400 31002KT 1/2SM FG OVC004=

USA.gov is the U.S. government's official web portal to all federal, state and local government web resources and services.